sensor_id;sensor_type;location;lat;lon;timestamp;temperature;humidity
314;DHT22;143;51.634;7.112;2023-03-01T00:00:15;2.50;1.00
314;DHT22;143;51.634;7.112;2023-03-01T00:02:40;2.40;1.00
314;DHT22;143;51.634;7.112;2023-03-01T00:05:06;2.20;1.00
314;DHT22;143;51.634;7.112;2023-03-01T00:07:33;2.40;1.00
314;DHT22;143;51.634;7.112;2023-03-01T00:09:58;2.10;1.00
314;DHT22;143;51.634;7.112;2023-03-01T00:12:24;2.40;1.00
314;DHT22;143;51.634;7.112;2023-03-01T00:14:50;2.30;1.00
314;DHT22;143;51.634;7.112;2023-03-01T00:17:15;2.30;1.00
314;DHT22;143;51.634;7.112;2023-03-01T00:19:41;2.30;1.00
314;DHT22;143;51.634;7.112;2023-03-01T00:22:07;2.30;1.00
314;DHT22;143;51.634;7.112;2023-03-01T00:24:32;2.30;1.00
314;DHT22;143;51.634;7.112;2023-03-01T00:26:58;2.30;1.00
314;DHT22;143;51.634;7.112;2023-03-01T00:29:25;2.40;1.00
314;DHT22;143;51.634;7.112;2023-03-01T00:31:51;1.90;1.00
314;DHT22;143;51.634;7.112;2023-03-01T00:34:17;2.20;1.00
314;DHT22;143;51.634;7.112;2023-03-01T00:36:42;1.90;1.00
314;DHT22;143;51.634;7.112;2023-03-01T00:39:12;2.00;1.00
314;DHT22;143;51.634;7.112;2023-03-01T00:41:38;1.90;1.00
314;DHT22;143;51.634;7.112;2023-03-01T00:44:05;2.30;1.00
314;DHT22;143;51.634;7.112;2023-03-01T00:46:31;2.20;1.00
314;DHT22;143;51.634;7.112;2023-03-01T00:48:57;1.90;1.00
314;DHT22;143;51.634;7.112;2023-03-01T00:51:26;2.00;1.00
314;DHT22;143;51.634;7.112;2023-03-01T00:53:54;1.80;1.00
314;DHT22;143;51.634;7.112;2023-03-01T00:56:20;1.90;1.00
314;DHT22;143;51.634;7.112;2023-03-01T00:58:46;2.10;1.00
314;DHT22;143;51.634;7.112;2023-03-01T01:01:17;2.00;1.00
314;DHT22;143;51.634;7.112;2023-03-01T01:03:48;1.80;1.00
314;DHT22;143;51.634;7.112;2023-03-01T01:06:24;1.90;1.00
314;DHT22;143;51.634;7.112;2023-03-01T01:08:51;2.30;1.00
314;DHT22;143;51.634;7.112;2023-03-01T01:11:18;1.90;1.00
314;DHT22;143;51.634;7.112;2023-03-01T01:13:45;2.30;1.00
314;DHT22;143;51.634;7.112;2023-03-01T01:16:12;1.90;1.00
314;DHT22;143;51.634;7.112;2023-03-01T01:18:38;1.90;1.00
314;DHT22;143;51.634;7.112;2023-03-01T01:21:06;1.80;1.00
314;DHT22;143;51.634;7.112;2023-03-01T01:23:32;1.90;1.00
314;DHT22;143;51.634;7.112;2023-03-01T01:26:10;1.90;1.00
314;DHT22;143;51.634;7.112;2023-03-01T01:28:36;1.80;1.00
314;DHT22;143;51.634;7.112;2023-03-01T01:31:02;1.80;1.00
314;DHT22;143;51.634;7.112;2023-03-01T01:33:28;1.80;1.00
314;DHT22;143;51.634;7.112;2023-03-01T01:35:54;1.80;1.00
314;DHT22;143;51.634;7.112;2023-03-01T01:38:19;1.80;1.00
314;DHT22;143;51.634;7.112;2023-03-01T01:40:47;1.80;1.00
314;DHT22;143;51.634;7.112;2023-03-01T01:43:25;1.90;1.00
314;DHT22;143;51.634;7.112;2023-03-01T01:45:56;1.80;1.00
314;DHT22;143;51.634;7.112;2023-03-01T01:48:24;1.70;1.00
314;DHT22;143;51.634;7.112;2023-03-01T01:51:09;1.70;1.00
314;DHT22;143;51.634;7.112;2023-03-01T01:53:38;1.70;1.00
314;DHT22;143;51.634;7.112;2023-03-01T01:56:07;1.60;1.00
314;DHT22;143;51.634;7.112;2023-03-01T01:58:33;1.60;1.00
314;DHT22;143;51.634;7.112;2023-03-01T02:00:58;1.80;1.00
314;DHT22;143;51.634;7.112;2023-03-01T02:03:29;1.70;1.00
314;DHT22;143;51.634;7.112;2023-03-01T02:06:06;1.40;1.00
314;DHT22;143;51.634;7.112;2023-03-01T02:08:36;1.60;1.00
314;DHT22;143;51.634;7.112;2023-03-01T02:11:03;1.70;1.00
314;DHT22;143;51.634;7.112;2023-03-01T02:13:33;1.40;1.00
314;DHT22;143;51.634;7.112;2023-03-01T02:16:05;1.50;1.00
314;DHT22;143;51.634;7.112;2023-03-01T02:18:33;1.40;1.00
314;DHT22;143;51.634;7.112;2023-03-01T02:21:03;1.40;1.00
314;DHT22;143;51.634;7.112;2023-03-01T02:23:30;1.40;1.00
314;DHT22;143;51.634;7.112;2023-03-01T02:25:57;1.50;1.00
314;DHT22;143;51.634;7.112;2023-03-01T02:28:36;1.40;1.00
314;DHT22;143;51.634;7.112;2023-03-01T02:31:05;1.40;3.80
314;DHT22;143;51.634;7.112;2023-03-01T02:33:51;1.40;5.30
314;DHT22;143;51.634;7.112;2023-03-01T02:36:23;1.40;7.60
314;DHT22;143;51.634;7.112;2023-03-01T02:38:52;1.40;7.70
314;DHT22;143;51.634;7.112;2023-03-01T02:41:20;1.40;7.70
314;DHT22;143;51.634;7.112;2023-03-01T02:43:46;1.40;9.60
314;DHT22;143;51.634;7.112;2023-03-01T02:46:20;1.40;10.30
314;DHT22;143;51.634;7.112;2023-03-01T02:48:52;1.40;9.40
314;DHT22;143;51.634;7.112;2023-03-01T02:56:44;1.50;16.80
314;DHT22;143;51.634;7.112;2023-03-01T02:59:13;1.20;16.70
314;DHT22;143;51.634;7.112;2023-03-01T03:01:39;1.10;19.60
314;DHT22;143;51.634;7.112;2023-03-01T03:04:11;1.30;22.10
314;DHT22;143;51.634;7.112;2023-03-01T03:06:37;1.20;24.30
314;DHT22;143;51.634;7.112;2023-03-01T03:09:04;1.20;27.60
314;DHT22;143;51.634;7.112;2023-03-01T03:11:30;1.20;30.90
314;DHT22;143;51.634;7.112;2023-03-01T03:13:56;1.20;34.60
314;DHT22;143;51.634;7.112;2023-03-01T03:16:23;1.10;27.10
314;DHT22;143;51.634;7.112;2023-03-01T03:18:49;1.20;40.10
314;DHT22;143;51.634;7.112;2023-03-01T03:21:16;1.20;41.70
314;DHT22;143;51.634;7.112;2023-03-01T03:23:42;1.20;44.80
314;DHT22;143;51.634;7.112;2023-03-01T03:26:08;1.40;47.40
314;DHT22;143;51.634;7.112;2023-03-01T03:28:35;1.40;51.20
314;DHT22;143;51.634;7.112;2023-03-01T03:31:01;1.30;50.70
314;DHT22;143;51.634;7.112;2023-03-01T03:33:32;1.40;51.50
314;DHT22;143;51.634;7.112;2023-03-01T03:35:58;1.10;50.70
314;DHT22;143;51.634;7.112;2023-03-01T03:38:23;1.20;53.30
314;DHT22;143;51.634;7.112;2023-03-01T03:40:59;1.40;55.70
314;DHT22;143;51.634;7.112;2023-03-01T03:43:29;1.30;56.60
314;DHT22;143;51.634;7.112;2023-03-01T03:45:55;1.20;59.30
314;DHT22;143;51.634;7.112;2023-03-01T03:48:22;1.20;60.60
314;DHT22;143;51.634;7.112;2023-03-01T03:50:50;1.20;62.70
314;DHT22;143;51.634;7.112;2023-03-01T03:53:17;1.20;66.90
314;DHT22;143;51.634;7.112;2023-03-01T03:55:43;1.30;70.80
314;DHT22;143;51.634;7.112;2023-03-01T03:58:10;1.20;76.80
314;DHT22;143;51.634;7.112;2023-03-01T04:00:38;1.10;81.80
314;DHT22;143;51.634;7.112;2023-03-01T04:03:05;1.30;84.50
314;DHT22;143;51.634;7.112;2023-03-01T04:05:30;1.20;84.60
314;DHT22;143;51.634;7.112;2023-03-01T04:07:57;1.30;86.00
314;DHT22;143;51.634;7.112;2023-03-01T04:10:30;1.20;78.90
314;DHT22;143;51.634;7.112;2023-03-01T04:12:56;1.30;89.20
314;DHT22;143;51.634;7.112;2023-03-01T04:15:23;1.00;91.00
314;DHT22;143;51.634;7.112;2023-03-01T04:17:51;1.10;92.60
314;DHT22;143;51.634;7.112;2023-03-01T04:20:21;1.00;93.10
314;DHT22;143;51.634;7.112;2023-03-01T04:23:16;1.00;93.80
314;DHT22;143;51.634;7.112;2023-03-01T04:25:53;1.00;94.60
314;DHT22;143;51.634;7.112;2023-03-01T04:30:46;0.90;97.00
314;DHT22;143;51.634;7.112;2023-03-01T04:33:12;0.90;98.50
314;DHT22;143;51.634;7.112;2023-03-01T04:35:38;0.60;99.50
314;DHT22;143;51.634;7.112;2023-03-01T04:38:05;0.80;99.90
314;DHT22;143;51.634;7.112;2023-03-01T04:40:31;0.70;99.90
314;DHT22;143;51.634;7.112;2023-03-01T04:42:57;0.80;99.90
314;DHT22;143;51.634;7.112;2023-03-01T04:45:23;0.70;99.90
314;DHT22;143;51.634;7.112;2023-03-01T04:47:49;0.70;99.90
314;DHT22;143;51.634;7.112;2023-03-01T04:50:18;0.70;99.90
314;DHT22;143;51.634;7.112;2023-03-01T04:52:49;0.70;99.90
314;DHT22;143;51.634;7.112;2023-03-01T04:55:15;0.80;99.90
314;DHT22;143;51.634;7.112;2023-03-01T04:57:41;0.60;99.90
314;DHT22;143;51.634;7.112;2023-03-01T05:00:09;0.80;99.90
314;DHT22;143;51.634;7.112;2023-03-01T05:02:57;0.50;99.90
314;DHT22;143;51.634;7.112;2023-03-01T05:05:28;0.60;99.90
314;DHT22;143;51.634;7.112;2023-03-01T05:07:56;0.50;99.90
314;DHT22;143;51.634;7.112;2023-03-01T05:10:23;0.50;99.90
314;DHT22;143;51.634;7.112;2023-03-01T05:12:49;0.50;99.90
314;DHT22;143;51.634;7.112;2023-03-01T05:15:15;0.60;99.90
314;DHT22;143;51.634;7.112;2023-03-01T05:17:41;0.60;99.90
314;DHT22;143;51.634;7.112;2023-03-01T05:20:07;0.60;99.90
314;DHT22;143;51.634;7.112;2023-03-01T05:22:34;0.50;99.90
314;DHT22;143;51.634;7.112;2023-03-01T05:25:01;0.50;99.90
314;DHT22;143;51.634;7.112;2023-03-01T05:27:26;0.60;99.90
314;DHT22;143;51.634;7.112;2023-03-01T05:29:52;0.40;99.90
314;DHT22;143;51.634;7.112;2023-03-01T05:32:18;0.40;99.90
314;DHT22;143;51.634;7.112;2023-03-01T05:34:44;0.30;99.90
314;DHT22;143;51.634;7.112;2023-03-01T05:37:12;0.20;99.90
314;DHT22;143;51.634;7.112;2023-03-01T05:39:37;0.40;99.90
314;DHT22;143;51.634;7.112;2023-03-01T05:42:03;0.60;99.90
314;DHT22;143;51.634;7.112;2023-03-01T05:44:29;0.50;99.90
314;DHT22;143;51.634;7.112;2023-03-01T05:46:55;0.40;99.90
314;DHT22;143;51.634;7.112;2023-03-01T05:49:21;0.40;99.90
314;DHT22;143;51.634;7.112;2023-03-01T05:51:50;0.50;99.90
314;DHT22;143;51.634;7.112;2023-03-01T05:54:16;0.50;99.90
314;DHT22;143;51.634;7.112;2023-03-01T05:56:43;0.20;99.90
314;DHT22;143;51.634;7.112;2023-03-01T05:59:09;0.40;99.90
314;DHT22;143;51.634;7.112;2023-03-01T06:01:35;0.40;99.90
314;DHT22;143;51.634;7.112;2023-03-01T06:04:01;0.40;99.90
314;DHT22;143;51.634;7.112;2023-03-01T06:06:27;0.40;99.90
314;DHT22;143;51.634;7.112;2023-03-01T06:08:53;0.40;99.90
314;DHT22;143;51.634;7.112;2023-03-01T06:11:20;0.40;99.90
314;DHT22;143;51.634;7.112;2023-03-01T06:13:46;0.40;99.90
314;DHT22;143;51.634;7.112;2023-03-01T06:16:13;0.40;99.90
314;DHT22;143;51.634;7.112;2023-03-01T06:18:39;0.30;99.90
314;DHT22;143;51.634;7.112;2023-03-01T06:21:05;0.30;99.90
314;DHT22;143;51.634;7.112;2023-03-01T06:23:32;0.30;99.90
314;DHT22;143;51.634;7.112;2023-03-01T06:25:58;0.30;99.90
314;DHT22;143;51.634;7.112;2023-03-01T06:28:24;0.30;99.90
314;DHT22;143;51.634;7.112;2023-03-01T06:30:50;0.30;99.90
314;DHT22;143;51.634;7.112;2023-03-01T06:33:17;0.30;99.90
314;DHT22;143;51.634;7.112;2023-03-01T06:35:46;0.30;99.90
314;DHT22;143;51.634;7.112;2023-03-01T06:38:12;0.30;99.90
314;DHT22;143;51.634;7.112;2023-03-01T06:40:40;0.30;99.90
314;DHT22;143;51.634;7.112;2023-03-01T06:43:06;0.40;99.90
314;DHT22;143;51.634;7.112;2023-03-01T06:45:33;0.50;99.90
314;DHT22;143;51.634;7.112;2023-03-01T06:48:06;0.50;99.90
314;DHT22;143;51.634;7.112;2023-03-01T06:50:33;0.60;99.90
314;DHT22;143;51.634;7.112;2023-03-01T06:52:59;0.60;99.90
314;DHT22;143;51.634;7.112;2023-03-01T06:55:24;0.50;99.90
314;DHT22;143;51.634;7.112;2023-03-01T06:58:01;0.50;99.90
314;DHT22;143;51.634;7.112;2023-03-01T07:00:28;0.30;99.90
314;DHT22;143;51.634;7.112;2023-03-01T07:02:54;0.40;99.90
314;DHT22;143;51.634;7.112;2023-03-01T07:05:20;0.30;99.90
314;DHT22;143;51.634;7.112;2023-03-01T07:07:45;0.40;99.90
314;DHT22;143;51.634;7.112;2023-03-01T07:10:12;0.50;99.90
314;DHT22;143;51.634;7.112;2023-03-01T07:12:37;0.60;99.90
314;DHT22;143;51.634;7.112;2023-03-01T07:15:03;0.60;99.90
314;DHT22;143;51.634;7.112;2023-03-01T07:17:30;0.60;99.90
314;DHT22;143;51.634;7.112;2023-03-01T07:19:56;0.50;99.90
314;DHT22;143;51.634;7.112;2023-03-01T07:22:22;0.80;99.90
314;DHT22;143;51.634;7.112;2023-03-01T07:24:47;0.70;99.90
314;DHT22;143;51.634;7.112;2023-03-01T07:27:13;0.80;99.90
314;DHT22;143;51.634;7.112;2023-03-01T07:29:39;0.60;99.90
314;DHT22;143;51.634;7.112;2023-03-01T07:32:05;1.10;99.90
314;DHT22;143;51.634;7.112;2023-03-01T07:34:31;0.90;99.90
314;DHT22;143;51.634;7.112;2023-03-01T07:36:57;1.00;99.90
314;DHT22;143;51.634;7.112;2023-03-01T07:39:22;1.20;99.90
314;DHT22;143;51.634;7.112;2023-03-01T07:41:49;1.20;99.90
314;DHT22;143;51.634;7.112;2023-03-01T07:44:15;1.40;99.90
314;DHT22;143;51.634;7.112;2023-03-01T07:46:41;1.50;99.90
314;DHT22;143;51.634;7.112;2023-03-01T07:49:07;1.40;99.90
314;DHT22;143;51.634;7.112;2023-03-01T07:51:33;1.60;99.90
314;DHT22;143;51.634;7.112;2023-03-01T07:53:58;1.90;99.90
314;DHT22;143;51.634;7.112;2023-03-01T07:56:24;1.70;99.90
314;DHT22;143;51.634;7.112;2023-03-01T07:58:50;1.80;99.90
314;DHT22;143;51.634;7.112;2023-03-01T08:01:17;1.90;99.90
314;DHT22;143;51.634;7.112;2023-03-01T08:03:44;2.00;99.90
314;DHT22;143;51.634;7.112;2023-03-01T08:06:11;2.30;99.90
314;DHT22;143;51.634;7.112;2023-03-01T08:08:37;2.20;99.90
314;DHT22;143;51.634;7.112;2023-03-01T08:11:05;2.50;99.90
314;DHT22;143;51.634;7.112;2023-03-01T08:13:31;2.60;99.90
314;DHT22;143;51.634;7.112;2023-03-01T08:16:07;2.60;99.90
314;DHT22;143;51.634;7.112;2023-03-01T08:18:33;2.80;96.10
314;DHT22;143;51.634;7.112;2023-03-01T08:21:18;2.80;86.20
314;DHT22;143;51.634;7.112;2023-03-01T08:23:44;3.10;77.00
314;DHT22;143;51.634;7.112;2023-03-01T08:26:15;3.10;63.20
314;DHT22;143;51.634;7.112;2023-03-01T08:28:43;3.30;51.90
314;DHT22;143;51.634;7.112;2023-03-01T08:31:32;3.30;37.70
314;DHT22;143;51.634;7.112;2023-03-01T08:34:00;3.60;24.50
314;DHT22;143;51.634;7.112;2023-03-01T08:36:30;3.70;10.50
314;DHT22;143;51.634;7.112;2023-03-01T08:38:56;3.60;1.00
314;DHT22;143;51.634;7.112;2023-03-01T08:41:22;4.10;1.00
314;DHT22;143;51.634;7.112;2023-03-01T08:43:59;3.80;1.00
314;DHT22;143;51.634;7.112;2023-03-01T08:46:59;4.30;1.00
314;DHT22;143;51.634;7.112;2023-03-01T08:49:30;4.40;1.00
314;DHT22;143;51.634;7.112;2023-03-01T08:51:58;4.70;1.00
314;DHT22;143;51.634;7.112;2023-03-01T08:54:23;4.40;1.00
314;DHT22;143;51.634;7.112;2023-03-01T08:56:49;4.80;1.00
314;DHT22;143;51.634;7.112;2023-03-01T08:59:18;4.80;1.00
314;DHT22;143;51.634;7.112;2023-03-01T09:01:44;5.00;1.00
314;DHT22;143;51.634;7.112;2023-03-01T09:04:10;5.30;1.00
314;DHT22;143;51.634;7.112;2023-03-01T09:06:37;5.20;1.00
314;DHT22;143;51.634;7.112;2023-03-01T09:09:04;5.70;1.00
314;DHT22;143;51.634;7.112;2023-03-01T09:11:30;5.60;1.00
314;DHT22;143;51.634;7.112;2023-03-01T09:13:56;5.70;1.00
314;DHT22;143;51.634;7.112;2023-03-01T09:16:23;6.00;1.00
314;DHT22;143;51.634;7.112;2023-03-01T09:18:50;6.00;1.00
314;DHT22;143;51.634;7.112;2023-03-01T09:21:17;6.40;1.00
314;DHT22;143;51.634;7.112;2023-03-01T09:23:45;6.50;1.00
314;DHT22;143;51.634;7.112;2023-03-01T09:26:17;6.50;1.00
314;DHT22;143;51.634;7.112;2023-03-01T09:28:45;6.70;1.00
314;DHT22;143;51.634;7.112;2023-03-01T09:31:11;6.60;1.00
314;DHT22;143;51.634;7.112;2023-03-01T09:33:41;6.70;1.00
314;DHT22;143;51.634;7.112;2023-03-01T09:36:11;6.70;1.00
314;DHT22;143;51.634;7.112;2023-03-01T09:38:36;6.80;1.00
314;DHT22;143;51.634;7.112;2023-03-01T09:41:02;6.90;1.00
314;DHT22;143;51.634;7.112;2023-03-01T09:43:45;7.20;1.00
314;DHT22;143;51.634;7.112;2023-03-01T09:46:14;7.10;1.00
314;DHT22;143;51.634;7.112;2023-03-01T09:48:48;7.10;1.00
314;DHT22;143;51.634;7.112;2023-03-01T09:51:24;7.60;1.00
314;DHT22;143;51.634;7.112;2023-03-01T09:53:51;7.60;1.00
314;DHT22;143;51.634;7.112;2023-03-01T09:56:37;7.80;1.00
314;DHT22;143;51.634;7.112;2023-03-01T10:04:50;8.20;1.00
314;DHT22;143;51.634;7.112;2023-03-01T10:10:07;8.30;1.00
314;DHT22;143;51.634;7.112;2023-03-01T10:12:37;7.90;1.00
314;DHT22;143;51.634;7.112;2023-03-01T10:20:20;8.20;1.00
314;DHT22;143;51.634;7.112;2023-03-01T10:22:47;8.50;1.00
314;DHT22;143;51.634;7.112;2023-03-01T10:25:29;8.60;1.00
314;DHT22;143;51.634;7.112;2023-03-01T10:28:05;8.70;1.00
314;DHT22;143;51.634;7.112;2023-03-01T10:30:38;8.80;1.00
314;DHT22;143;51.634;7.112;2023-03-01T10:33:27;8.80;1.00
314;DHT22;143;51.634;7.112;2023-03-01T10:35:54;9.10;1.00
314;DHT22;143;51.634;7.112;2023-03-01T10:38:20;9.20;1.00
314;DHT22;143;51.634;7.112;2023-03-01T10:41:04;9.10;1.00
314;DHT22;143;51.634;7.112;2023-03-01T10:43:59;9.30;1.00
314;DHT22;143;51.634;7.112;2023-03-01T10:46:32;9.70;1.00
314;DHT22;143;51.634;7.112;2023-03-01T10:49:21;9.80;1.00
314;DHT22;143;51.634;7.112;2023-03-01T10:51:51;10.00;1.00
314;DHT22;143;51.634;7.112;2023-03-01T10:54:24;10.10;1.00
314;DHT22;143;51.634;7.112;2023-03-01T10:56:55;10.40;1.00
314;DHT22;143;51.634;7.112;2023-03-01T11:02:16;11.00;1.00
314;DHT22;143;51.634;7.112;2023-03-01T11:05:23;11.00;1.00
314;DHT22;143;51.634;7.112;2023-03-01T11:07:54;11.10;1.00
314;DHT22;143;51.634;7.112;2023-03-01T11:10:25;11.30;1.00
314;DHT22;143;51.634;7.112;2023-03-01T11:12:53;11.80;1.00
314;DHT22;143;51.634;7.112;2023-03-01T11:15:22;12.20;1.00
314;DHT22;143;51.634;7.112;2023-03-01T11:17:49;12.30;1.00
314;DHT22;143;51.634;7.112;2023-03-01T11:20:19;12.30;1.00
314;DHT22;143;51.634;7.112;2023-03-01T11:23:13;12.70;1.00
314;DHT22;143;51.634;7.112;2023-03-01T11:25:42;12.90;1.00
314;DHT22;143;51.634;7.112;2023-03-01T11:28:14;13.30;1.00
314;DHT22;143;51.634;7.112;2023-03-01T11:33:43;13.60;1.00
314;DHT22;143;51.634;7.112;2023-03-01T11:38:55;13.70;1.00
314;DHT22;143;51.634;7.112;2023-03-01T11:41:26;13.90;1.00
314;DHT22;143;51.634;7.112;2023-03-01T11:44:00;13.70;1.00
314;DHT22;143;51.634;7.112;2023-03-01T11:49:17;13.90;1.00
314;DHT22;143;51.634;7.112;2023-03-01T11:52:16;14.20;1.00
314;DHT22;143;51.634;7.112;2023-03-01T11:57:51;14.90;1.00
314;DHT22;143;51.634;7.112;2023-03-01T12:00:31;14.80;1.00
314;DHT22;143;51.634;7.112;2023-03-01T12:03:19;14.90;1.00
314;DHT22;143;51.634;7.112;2023-03-01T12:08:52;14.40;1.00
314;DHT22;143;51.634;7.112;2023-03-01T12:11:47;14.40;1.00
314;DHT22;143;51.634;7.112;2023-03-01T12:23:13;14.90;1.00
314;DHT22;143;51.634;7.112;2023-03-01T12:25:55;14.80;1.00
314;DHT22;143;51.634;7.112;2023-03-01T12:31:40;14.20;1.00
314;DHT22;143;51.634;7.112;2023-03-01T12:36:55;14.70;1.00
314;DHT22;143;51.634;7.112;2023-03-01T12:39:37;14.90;1.00
314;DHT22;143;51.634;7.112;2023-03-01T12:44:52;14.30;1.00
314;DHT22;143;51.634;7.112;2023-03-01T12:47:46;14.10;1.00
314;DHT22;143;51.634;7.112;2023-03-01T12:50:21;13.80;1.00
314;DHT22;143;51.634;7.112;2023-03-01T12:52:55;13.70;1.00
314;DHT22;143;51.634;7.112;2023-03-01T12:55:37;13.90;1.00
314;DHT22;143;51.634;7.112;2023-03-01T12:58:32;14.00;1.00
314;DHT22;143;51.634;7.112;2023-03-01T13:06:32;13.90;1.00
314;DHT22;143;51.634;7.112;2023-03-01T13:11:42;14.00;1.00
314;DHT22;143;51.634;7.112;2023-03-01T13:16:47;13.90;1.00
314;DHT22;143;51.634;7.112;2023-03-01T13:19:22;14.10;1.00
314;DHT22;143;51.634;7.112;2023-03-01T13:21:51;14.30;1.00
314;DHT22;143;51.634;7.112;2023-03-01T13:24:38;14.30;1.00
314;DHT22;143;51.634;7.112;2023-03-01T13:32:28;14.00;1.00
314;DHT22;143;51.634;7.112;2023-03-01T13:34:56;14.00;1.00
314;DHT22;143;51.634;7.112;2023-03-01T13:37:27;13.90;1.00
314;DHT22;143;51.634;7.112;2023-03-01T13:39:59;13.90;1.00
314;DHT22;143;51.634;7.112;2023-03-01T13:42:43;13.90;1.00
314;DHT22;143;51.634;7.112;2023-03-01T13:45:21;14.20;1.00
314;DHT22;143;51.634;7.112;2023-03-01T13:47:52;14.00;1.00
314;DHT22;143;51.634;7.112;2023-03-01T13:50:23;13.60;1.00
314;DHT22;143;51.634;7.112;2023-03-01T13:53:00;13.20;1.00
314;DHT22;143;51.634;7.112;2023-03-01T13:55:36;12.80;1.00
314;DHT22;143;51.634;7.112;2023-03-01T13:58:13;12.80;1.00
314;DHT22;143;51.634;7.112;2023-03-01T14:00:40;13.00;1.00
314;DHT22;143;51.634;7.112;2023-03-01T14:03:19;13.40;1.00
314;DHT22;143;51.634;7.112;2023-03-01T14:06:08;13.60;1.00
314;DHT22;143;51.634;7.112;2023-03-01T14:08:36;13.80;1.00
314;DHT22;143;51.634;7.112;2023-03-01T14:19:04;13.20;1.00
314;DHT22;143;51.634;7.112;2023-03-01T14:21:33;13.20;1.00
314;DHT22;143;51.634;7.112;2023-03-01T14:23:59;13.00;1.00
314;DHT22;143;51.634;7.112;2023-03-01T14:26:24;12.80;1.00
314;DHT22;143;51.634;7.112;2023-03-01T14:28:50;12.70;1.00
314;DHT22;143;51.634;7.112;2023-03-01T14:31:36;12.50;1.00
314;DHT22;143;51.634;7.112;2023-03-01T14:34:03;12.60;1.00
314;DHT22;143;51.634;7.112;2023-03-01T14:36:31;12.90;1.00
314;DHT22;143;51.634;7.112;2023-03-01T14:38:57;13.30;1.00
314;DHT22;143;51.634;7.112;2023-03-01T14:41:34;13.50;1.00
314;DHT22;143;51.634;7.112;2023-03-01T14:44:07;13.20;1.00
314;DHT22;143;51.634;7.112;2023-03-01T14:46:43;12.70;1.00
314;DHT22;143;51.634;7.112;2023-03-01T14:49:15;12.40;1.00
314;DHT22;143;51.634;7.112;2023-03-01T14:51:47;12.30;1.00
314;DHT22;143;51.634;7.112;2023-03-01T14:54:28;12.20;1.00
314;DHT22;143;51.634;7.112;2023-03-01T14:56:58;12.20;1.00
314;DHT22;143;51.634;7.112;2023-03-01T14:59:25;12.10;1.00
314;DHT22;143;51.634;7.112;2023-03-01T15:01:54;12.10;1.00
314;DHT22;143;51.634;7.112;2023-03-01T15:04:21;12.00;1.00
314;DHT22;143;51.634;7.112;2023-03-01T15:06:50;11.90;1.00
314;DHT22;143;51.634;7.112;2023-03-01T15:09:17;11.90;1.00
314;DHT22;143;51.634;7.112;2023-03-01T15:11:43;11.90;1.00
314;DHT22;143;51.634;7.112;2023-03-01T15:14:49;12.00;1.00
314;DHT22;143;51.634;7.112;2023-03-01T15:19:55;12.20;1.00
314;DHT22;143;51.634;7.112;2023-03-01T15:22:21;12.20;1.00
314;DHT22;143;51.634;7.112;2023-03-01T15:24:49;12.30;1.00
314;DHT22;143;51.634;7.112;2023-03-01T15:27:17;12.30;1.00
314;DHT22;143;51.634;7.112;2023-03-01T15:29:50;12.30;1.00
314;DHT22;143;51.634;7.112;2023-03-01T15:32:36;12.30;1.00
314;DHT22;143;51.634;7.112;2023-03-01T15:35:35;12.30;1.00
314;DHT22;143;51.634;7.112;2023-03-01T15:38:18;12.30;1.00
314;DHT22;143;51.634;7.112;2023-03-01T15:40:52;12.00;1.00
314;DHT22;143;51.634;7.112;2023-03-01T15:44:00;11.90;1.00
314;DHT22;143;51.634;7.112;2023-03-01T15:46:30;11.70;1.00
314;DHT22;143;51.634;7.112;2023-03-01T15:49:00;11.60;1.00
314;DHT22;143;51.634;7.112;2023-03-01T15:53:59;11.70;1.00
314;DHT22;143;51.634;7.112;2023-03-01T15:56:25;11.70;1.00
314;DHT22;143;51.634;7.112;2023-03-01T15:58:50;11.70;1.00
314;DHT22;143;51.634;7.112;2023-03-01T16:01:17;11.80;1.00
314;DHT22;143;51.634;7.112;2023-03-01T16:03:43;11.80;1.00
314;DHT22;143;51.634;7.112;2023-03-01T16:06:10;11.70;1.00
314;DHT22;143;51.634;7.112;2023-03-01T16:08:37;11.60;1.00
314;DHT22;143;51.634;7.112;2023-03-01T16:11:04;11.40;1.00
314;DHT22;143;51.634;7.112;2023-03-01T16:13:31;11.50;1.00
314;DHT22;143;51.634;7.112;2023-03-01T16:15:58;11.40;1.00
314;DHT22;143;51.634;7.112;2023-03-01T16:18:24;11.20;1.00
314;DHT22;143;51.634;7.112;2023-03-01T16:20:50;11.20;1.00
314;DHT22;143;51.634;7.112;2023-03-01T16:23:15;11.10;1.00
314;DHT22;143;51.634;7.112;2023-03-01T16:25:41;11.30;1.00
314;DHT22;143;51.634;7.112;2023-03-01T16:28:07;11.10;1.00
314;DHT22;143;51.634;7.112;2023-03-01T16:30:37;11.10;1.00
314;DHT22;143;51.634;7.112;2023-03-01T16:33:03;11.00;1.00
314;DHT22;143;51.634;7.112;2023-03-01T16:35:32;10.90;1.00
314;DHT22;143;51.634;7.112;2023-03-01T16:37:59;10.60;1.00
314;DHT22;143;51.634;7.112;2023-03-01T16:40:29;10.60;1.00
314;DHT22;143;51.634;7.112;2023-03-01T16:42:56;10.50;1.00
314;DHT22;143;51.634;7.112;2023-03-01T16:45:26;10.50;1.00
314;DHT22;143;51.634;7.112;2023-03-01T16:47:52;10.00;1.00
314;DHT22;143;51.634;7.112;2023-03-01T16:50:18;10.00;1.00
314;DHT22;143;51.634;7.112;2023-03-01T16:52:44;9.90;1.00
314;DHT22;143;51.634;7.112;2023-03-01T16:55:10;9.80;1.00
314;DHT22;143;51.634;7.112;2023-03-01T16:57:37;9.70;1.00
314;DHT22;143;51.634;7.112;2023-03-01T17:00:04;9.50;1.00
314;DHT22;143;51.634;7.112;2023-03-01T17:02:33;9.40;1.00
314;DHT22;143;51.634;7.112;2023-03-01T17:04:59;9.40;1.00
314;DHT22;143;51.634;7.112;2023-03-01T17:07:24;9.30;1.00
314;DHT22;143;51.634;7.112;2023-03-01T17:09:50;9.30;1.00
314;DHT22;143;51.634;7.112;2023-03-01T17:12:16;9.00;1.00
314;DHT22;143;51.634;7.112;2023-03-01T17:14:42;9.00;1.00
314;DHT22;143;51.634;7.112;2023-03-01T17:17:09;9.10;1.00
314;DHT22;143;51.634;7.112;2023-03-01T17:19:35;8.90;1.00
314;DHT22;143;51.634;7.112;2023-03-01T17:22:05;9.00;1.00
314;DHT22;143;51.634;7.112;2023-03-01T17:24:35;8.70;1.00
314;DHT22;143;51.634;7.112;2023-03-01T17:27:02;8.60;1.00
314;DHT22;143;51.634;7.112;2023-03-01T17:29:27;8.60;1.00
314;DHT22;143;51.634;7.112;2023-03-01T17:31:54;8.60;1.00
314;DHT22;143;51.634;7.112;2023-03-01T17:34:21;8.50;1.00
314;DHT22;143;51.634;7.112;2023-03-01T17:36:48;8.50;1.00
314;DHT22;143;51.634;7.112;2023-03-01T17:39:15;8.10;1.00
314;DHT22;143;51.634;7.112;2023-03-01T17:41:41;8.20;1.00
314;DHT22;143;51.634;7.112;2023-03-01T17:44:07;8.20;1.00
314;DHT22;143;51.634;7.112;2023-03-01T17:46:33;8.10;1.00
314;DHT22;143;51.634;7.112;2023-03-01T17:48:59;7.90;1.00
314;DHT22;143;51.634;7.112;2023-03-01T17:51:24;7.90;1.00
314;DHT22;143;51.634;7.112;2023-03-01T17:53:50;7.90;1.00
314;DHT22;143;51.634;7.112;2023-03-01T17:56:16;7.80;1.00
314;DHT22;143;51.634;7.112;2023-03-01T17:58:41;7.80;1.00
314;DHT22;143;51.634;7.112;2023-03-01T18:01:08;7.60;1.00
314;DHT22;143;51.634;7.112;2023-03-01T18:03:33;7.50;1.00
314;DHT22;143;51.634;7.112;2023-03-01T18:05:59;7.40;1.00
314;DHT22;143;51.634;7.112;2023-03-01T18:08:25;7.30;1.00
314;DHT22;143;51.634;7.112;2023-03-01T18:10:57;7.50;1.00
314;DHT22;143;51.634;7.112;2023-03-01T18:13:23;7.40;1.00
314;DHT22;143;51.634;7.112;2023-03-01T18:15:48;7.40;1.00
314;DHT22;143;51.634;7.112;2023-03-01T18:18:14;7.30;1.00
314;DHT22;143;51.634;7.112;2023-03-01T18:20:40;7.30;1.00
314;DHT22;143;51.634;7.112;2023-03-01T18:23:06;7.00;1.00
314;DHT22;143;51.634;7.112;2023-03-01T18:25:31;7.00;1.00
314;DHT22;143;51.634;7.112;2023-03-01T18:27:57;6.80;1.00
314;DHT22;143;51.634;7.112;2023-03-01T18:30:23;6.70;1.00
314;DHT22;143;51.634;7.112;2023-03-01T18:32:48;6.70;1.00
314;DHT22;143;51.634;7.112;2023-03-01T18:35:21;6.70;1.00
314;DHT22;143;51.634;7.112;2023-03-01T18:37:47;6.70;1.00
314;DHT22;143;51.634;7.112;2023-03-01T18:40:14;6.60;1.00